Time;durP1;ratioP1;P1;durP2;ratioP2;P2;SDS_P1;SDS_P2;PMS_P1;PMS_P2;Temp;Humidity;BMP_temperature;BMP_pressure;BME280_temperature;BME280_humidity;BME280_pressure;Samples;Min_cycle;Max_cycle;Signal;HPM_P1;HPM_P2
2022/10/12 00:02:02;;;;;;;8.27;3.00;;;4.70;99.90;;;;;;4993052;28;20054;-59
2022/10/12 00:04:28;;;;;;;6.50;2.45;;;4.60;99.90;;;;;;4995119;28;20030;-59
2022/10/12 00:06:53;;;;;;;4.28;2.33;;;4.60;99.90;;;;;;4997763;28;20128;-59
2022/10/12 00:09:19;;;;;;;3.65;2.10;;;4.60;99.90;;;;;;4992750;28;20367;-58
2022/10/12 00:11:45;;;;;;;6.45;2.28;;;4.50;99.90;;;;;;4996354;28;20418;-59
2022/10/12 00:14:10;;;;;;;9.00;2.65;;;4.50;99.90;;;;;;4998876;28;20039;-58
2022/10/12 00:16:36;;;;;;;3.72;1.98;;;4.50;99.90;;;;;;4994486;28;20038;-63
2022/10/12 00:19:02;;;;;;;3.05;1.70;;;4.50;99.90;;;;;;4994508;28;20414;-59
2022/10/12 00:21:28;;;;;;;2.50;2.03;;;4.40;99.90;;;;;;4996076;28;20068;-59
2022/10/12 00:23:59;;;;;;;3.17;1.63;;;4.40;99.90;;;;;;4990560;28;20033;-59
2022/10/12 00:26:27;;;;;;;6.85;2.00;;;4.30;99.90;;;;;;5004483;28;20065;-58
2022/10/12 00:28:58;;;;;;;2.38;1.67;;;4.40;99.90;;;;;;5003473;28;20482;-59
2022/10/12 00:31:25;;;;;;;1.25;1.05;;;4.40;99.90;;;;;;4997560;28;20117;-59
2022/10/12 00:33:51;;;;;;;4.50;1.63;;;4.40;99.90;;;;;;4991811;28;20077;-58
2022/10/12 00:36:23;;;;;;;6.05;2.17;;;4.30;99.90;;;;;;4996908;28;20054;-59
2022/10/12 00:38:51;;;;;;;3.60;2.03;;;4.30;99.90;;;;;;4993342;28;20391;-58
2022/10/12 00:41:19;;;;;;;5.03;2.63;;;4.30;99.90;;;;;;4996469;28;20509;-58
2022/10/12 00:43:45;;;;;;;7.40;1.50;;;4.20;99.90;;;;;;4990673;28;20397;-58
2022/10/12 00:46:29;;;;;;;4.75;1.70;;;4.30;99.90;;;;;;4998155;28;20088;-60
2022/10/12 00:49:10;;;;;;;1.45;1.10;;;4.30;99.90;;;;;;4991445;28;20406;-58
2022/10/12 00:51:38;;;;;;;4.28;1.90;;;4.40;99.90;;;;;;4995669;28;20043;-58
2022/10/12 00:54:09;;;;;;;2.85;1.70;;;4.40;99.90;;;;;;4991641;28;20066;-58
2022/10/12 00:56:38;;;;;;;2.50;1.92;;;4.30;99.90;;;;;;4994711;28;20033;-62
2022/10/12 00:59:08;;;;;;;5.30;1.70;;;4.20;99.90;;;;;;4999486;28;20026;-58
2022/10/12 01:01:35;;;;;;;5.03;1.77;;;4.30;99.90;;;;;;4989154;28;20034;-60
2022/10/12 01:04:01;;;;;;;6.20;1.63;;;4.30;99.90;;;;;;4999634;28;20057;-58
2022/10/12 01:06:28;;;;;;;2.83;1.60;;;4.20;99.90;;;;;;4995848;28;20038;-59
2022/10/12 01:08:55;;;;;;;3.90;1.80;;;4.20;99.90;;;;;;5002569;28;20397;-59
2022/10/12 01:11:21;;;;;;;2.38;1.75;;;4.20;99.90;;;;;;4993345;28;20041;-59
2022/10/12 01:13:46;;;;;;;7.55;1.80;;;4.30;99.90;;;;;;4991652;28;20401;-59
2022/10/12 01:16:31;;;;;;;2.50;1.70;;;4.20;99.90;;;;;;4991332;28;20482;-59
2022/10/12 01:19:24;;;;;;;6.05;1.70;;;4.10;99.90;;;;;;4993135;28;20434;-59
2022/10/12 01:22:06;;;;;;;1.52;1.42;;;4.10;99.90;;;;;;4990115;28;20037;-59
2022/10/12 01:24:44;;;;;;;3.38;1.83;;;4.10;99.90;;;;;;4990205;28;20034;-59
2022/10/12 01:27:13;;;;;;;3.55;1.85;;;4.20;99.90;;;;;;5004655;28;20032;-59
2022/10/12 01:29:57;;;;;;;2.72;1.45;;;4.30;99.90;;;;;;5000400;28;20152;-59
2022/10/12 01:32:38;;;;;;;3.40;1.52;;;4.30;99.90;;;;;;4985734;28;20092;-59
2022/10/12 01:35:19;;;;;;;3.92;1.83;;;4.20;99.90;;;;;;4989995;28;20046;-59
2022/10/12 01:38:19;;;;;;;10.85;2.45;;;4.30;99.90;;;;;;4989392;28;20363;-58
2022/10/12 01:41:17;;;;;;;6.05;2.65;;;4.30;99.90;;;;;;5001184;28;20385;-58
2022/10/12 01:43:44;;;;;;;4.32;1.63;;;4.30;99.90;;;;;;4986937;28;20362;-59
2022/10/12 01:46:19;;;;;;;3.28;2.28;;;4.30;99.90;;;;;;4994035;28;20113;-58
2022/10/12 01:48:47;;;;;;;2.78;2.03;;;4.20;99.90;;;;;;4994010;28;20030;-58
2022/10/12 01:51:23;;;;;;;4.45;2.08;;;4.20;99.90;;;;;;4990671;28;20057;-60
2022/10/12 01:54:25;;;;;;;3.85;1.92;;;4.10;99.90;;;;;;4986158;28;20402;-60
2022/10/12 01:57:07;;;;;;;1.77;1.17;;;4.10;99.90;;;;;;4985951;28;20056;-59
2022/10/12 01:59:46;;;;;;;5.63;2.17;;;4.10;99.90;;;;;;4987934;28;20061;-61
2022/10/12 02:02:23;;;;;;;7.35;2.05;;;4.10;99.90;;;;;;5003223;28;20404;-59
2022/10/12 02:04:57;;;;;;;2.97;1.67;;;4.00;99.90;;;;;;4995705;28;20034;-59
2022/10/12 02:07:44;;;;;;;3.33;1.70;;;4.00;99.90;;;;;;4984149;28;20138;-58
2022/10/12 02:10:21;;;;;;;7.65;2.35;;;4.00;99.90;;;;;;4989284;28;20637;-60
2022/10/12 02:12:50;;;;;;;3.00;1.48;;;4.10;99.90;;;;;;4989917;28;20548;-58
2022/10/12 02:15:17;;;;;;;2.85;1.70;;;4.10;99.90;;;;;;4995619;28;20042;-58
2022/10/12 02:17:46;;;;;;;3.42;1.50;;;4.00;99.90;;;;;;4994352;28;20022;-59
2022/10/12 02:20:15;;;;;;;3.67;2.08;;;4.00;99.90;;;;;;4989333;28;20042;-59
2022/10/12 02:22:45;;;;;;;4.38;1.77;;;4.00;99.90;;;;;;4990645;28;20042;-59
2022/10/12 02:25:14;;;;;;;4.95;1.95;;;3.90;99.90;;;;;;4996578;28;20030;-59
2022/10/12 02:27:43;;;;;;;4.30;1.98;;;3.90;99.90;;;;;;4990780;28;20471;-60
2022/10/12 02:30:10;;;;;;;5.93;1.90;;;3.90;99.90;;;;;;4989733;28;20038;-61
2022/10/12 02:32:48;;;;;;;3.30;1.88;;;3.90;99.90;;;;;;4988065;28;20028;-60
2022/10/12 02:35:37;;;;;;;4.05;1.63;;;3.80;99.90;;;;;;4994539;28;20076;-59
2022/10/12 02:38:15;;;;;;;3.85;1.77;;;3.80;99.90;;;;;;4984077;28;20026;-59
2022/10/12 02:40:59;;;;;;;6.97;2.72;;;3.90;99.90;;;;;;4983988;28;20038;-59
2022/10/12 02:43:33;;;;;;;6.10;2.53;;;4.10;99.90;;;;;;4989671;28;20490;-58
2022/10/12 02:46:00;;;;;;;8.50;2.28;;;4.10;99.90;;;;;;4995334;28;20084;-59
2022/10/12 02:48:27;;;;;;;2.78;1.73;;;4.30;99.90;;;;;;4997084;28;20038;-60
2022/10/12 02:50:56;;;;;;;2.05;1.58;;;4.30;99.90;;;;;;4990527;28;20034;-59
2022/10/12 02:53:23;;;;;;;2.42;2.10;;;4.40;99.90;;;;;;5001937;28;20053;-59
2022/10/12 02:55:51;;;;;;;4.78;2.00;;;4.40;99.90;;;;;;4987545;28;20113;-59
2022/10/12 02:58:17;;;;;;;6.28;2.00;;;4.40;99.90;;;;;;5001309;28;20037;-59
2022/10/12 03:00:43;;;;;;;6.93;2.58;;;4.50;99.90;;;;;;4993073;28;20045;-60
2022/10/12 03:03:09;;;;;;;4.43;1.80;;;4.40;99.90;;;;;;4995720;28;20030;-58
2022/10/12 03:05:34;;;;;;;4.47;2.08;;;4.50;99.90;;;;;;4990529;28;20362;-58
2022/10/12 03:08:00;;;;;;;1.85;1.70;;;4.50;99.90;;;;;;4995578;28;20048;-58
2022/10/12 03:10:26;;;;;;;3.83;2.13;;;4.50;99.90;;;;;;4994774;28;20499;-57
2022/10/12 03:12:52;;;;;;;6.45;1.50;;;4.50;99.90;;;;;;4997419;28;20172;-58
2022/10/12 03:15:18;;;;;;;5.75;1.95;;;4.50;99.90;;;;;;4991806;28;20518;-59
2022/10/12 03:17:44;;;;;;;3.75;2.15;;;4.60;99.90;;;;;;4992479;28;20022;-60
2022/10/12 03:20:10;;;;;;;4.93;2.20;;;4.50;99.90;;;;;;4997299;28;20037;-60
2022/10/12 03:22:35;;;;;;;5.97;2.13;;;4.60;99.90;;;;;;5001252;28;20034;-59
2022/10/12 03:25:01;;;;;;;8.13;1.88;;;4.70;99.90;;;;;;4997785;28;20026;-59
2022/10/12 03:27:27;;;;;;;3.45;2.15;;;4.80;99.90;;;;;;5000289;28;20033;-60
2022/10/12 03:29:52;;;;;;;7.28;2.65;;;4.90;99.90;;;;;;5001301;28;20046;-60
2022/10/12 03:32:18;;;;;;;3.92;1.80;;;5.00;99.90;;;;;;4999852;28;20398;-59
2022/10/12 03:34:44;;;;;;;2.85;1.73;;;5.00;99.90;;;;;;5001442;28;20038;-60
2022/10/12 03:37:09;;;;;;;6.32;2.08;;;5.10;99.90;;;;;;5001353;28;20030;-60
2022/10/12 03:39:35;;;;;;;2.42;1.65;;;5.10;99.90;;;;;;5005455;28;20398;-59
2022/10/12 03:42:00;;;;;;;2.67;1.90;;;5.10;99.90;;;;;;4995236;28;20061;-59
2022/10/12 03:44:26;;;;;;;3.17;1.67;;;5.10;99.90;;;;;;5008352;28;20034;-58
2022/10/12 03:46:52;;;;;;;5.57;1.90;;;5.10;99.90;;;;;;5000303;28;20041;-59
2022/10/12 03:49:17;;;;;;;6.38;2.20;;;5.20;99.90;;;;;;4999990;28;20487;-59
2022/10/12 03:51:43;;;;;;;3.38;1.92;;;5.30;99.90;;;;;;5001864;28;20038;-60
2022/10/12 03:54:09;;;;;;;4.72;2.13;;;5.30;99.90;;;;;;5000232;28;20050;-58
2022/10/12 03:56:34;;;;;;;3.28;1.60;;;5.40;99.90;;;;;;4996823;28;20034;-59
2022/10/12 03:59:00;;;;;;;9.82;2.53;;;5.40;99.90;;;;;;4998808;28;20490;-59
2022/10/12 04:01:26;;;;;;;4.82;1.98;;;5.40;99.90;;;;;;5000971;28;20026;-58
2022/10/12 04:03:51;;;;;;;10.23;2.78;;;5.50;99.90;;;;;;5002740;28;20108;-58
2022/10/12 04:06:17;;;;;;;3.58;2.13;;;5.60;99.90;;;;;;4997982;28;20039;-57
2022/10/12 04:08:43;;;;;;;6.10;2.42;;;5.60;99.90;;;;;;5002377;28;20048;-60
2022/10/12 04:11:08;;;;;;;4.65;1.90;;;5.60;99.90;;;;;;5003908;28;20045;-60
2022/10/12 04:13:34;;;;;;;4.50;2.00;;;5.60;99.90;;;;;;4995596;28;20454;-59
2022/10/12 04:16:06;;;;;;;10.10;2.60;;;5.60;99.90;;;;;;4991199;28;20053;-59
2022/10/12 04:18:33;;;;;;;4.30;2.53;;;5.70;99.90;;;;;;5000958;28;20030;-58
2022/10/12 04:20:59;;;;;;;5.38;1.90;;;5.70;99.90;;;;;;4999922;28;20022;-60
2022/10/12 04:23:25;;;;;;;5.05;1.85;;;5.60;99.90;;;;;;5008267;28;20044;-60
2022/10/12 04:25:51;;;;;;;4.10;2.22;;;5.50;99.90;;;;;;5001045;28;20449;-59
2022/10/12 04:28:17;;;;;;;5.40;2.10;;;5.40;99.90;;;;;;4985850;28;20550;-59
2022/10/12 04:30:44;;;;;;;5.53;2.40;;;5.50;99.90;;;;;;4994021;28;20499;-59
2022/10/12 04:33:10;;;;;;;5.30;2.20;;;5.30;99.90;;;;;;5003184;28;20089;-59
2022/10/12 04:35:35;;;;;;;4.88;2.47;;;5.40;99.90;;;;;;4997039;28;20035;-59
2022/10/12 04:38:01;;;;;;;4.10;1.85;;;5.40;99.90;;;;;;5004528;28;20023;-59
2022/10/12 04:40:27;;;;;;;1.90;1.60;;;5.40;99.90;;;;;;4997752;28;20034;-59
2022/10/12 04:42:54;;;;;;;4.85;1.70;;;5.40;99.90;;;;;;4991288;28;20030;-59
2022/10/12 04:45:20;;;;;;;3.58;2.05;;;5.50;99.90;;;;;;4998586;28;20031;-59
2022/10/12 04:47:46;;;;;;;5.93;1.92;;;5.60;99.90;;;;;;4991438;28;20030;-60
2022/10/12 04:50:11;;;;;;;4.07;1.67;;;5.50;99.90;;;;;;4991913;28;20081;-61
2022/10/12 04:52:37;;;;;;;5.55;2.38;;;5.40;99.90;;;;;;4990977;28;20030;-59
2022/10/12 04:55:03;;;;;;;9.27;2.50;;;5.50;99.90;;;;;;5004523;28;20049;-59
2022/10/12 04:57:29;;;;;;;6.30;2.03;;;5.50;99.90;;;;;;4991117;28;20071;-59
2022/10/12 04:59:54;;;;;;;2.78;1.80;;;5.50;99.90;;;;;;4983997;28;20475;-59
2022/10/12 05:02:20;;;;;;;3.10;1.88;;;5.50;99.90;;;;;;4991627;28;20117;-59
2022/10/12 05:04:46;;;;;;;6.28;1.85;;;5.40;99.90;;;;;;4991807;28;20135;-59
2022/10/12 05:07:11;;;;;;;8.30;2.10;;;5.50;99.90;;;;;;4995729;28;20050;-58
2022/10/12 05:09:37;;;;;;;2.75;1.70;;;5.50;99.90;;;;;;5002760;28;20109;-58
2022/10/12 05:12:03;;;;;;;10.55;3.00;;;5.50;99.90;;;;;;4998889;28;20037;-59
2022/10/12 05:14:28;;;;;;;2.55;1.90;;;5.60;99.90;;;;;;4991958;28;20073;-58
2022/10/12 05:16:54;;;;;;;5.65;1.92;;;5.60;99.90;;;;;;4989568;28;20037;-61
2022/10/12 05:19:20;;;;;;;8.77;2.60;;;5.70;99.90;;;;;;4999569;28;20035;-62
2022/10/12 05:21:45;;;;;;;3.63;1.70;;;5.60;99.90;;;;;;4991615;28;20394;-60
2022/10/12 05:24:11;;;;;;;3.22;1.67;;;5.70;99.90;;;;;;4996884;28;20060;-59
2022/10/12 05:26:36;;;;;;;3.78;1.70;;;5.70;99.90;;;;;;4997767;28;20025;-60
2022/10/12 05:29:02;;;;;;;10.45;1.90;;;5.60;99.90;;;;;;4995836;28;20022;-58
2022/10/12 05:31:28;;;;;;;6.07;1.83;;;5.60;99.90;;;;;;4987080;28;20050;-59
2022/10/12 05:33:53;;;;;;;4.57;1.90;;;5.50;99.90;;;;;;4989407;28;20038;-59
2022/10/12 05:36:19;;;;;;;4.60;1.77;;;5.60;99.90;;;;;;4997807;28;20502;-58
2022/10/12 05:38:45;;;;;;;3.55;1.50;;;5.60;99.90;;;;;;4992172;28;20095;-59
2022/10/12 05:41:10;;;;;;;4.00;2.25;;;5.70;99.90;;;;;;4994710;28;20022;-58
2022/10/12 05:43:36;;;;;;;9.00;2.38;;;5.60;99.90;;;;;;4987835;28;20386;-58
2022/10/12 05:46:01;;;;;;;6.50;1.80;;;5.60;99.90;;;;;;4990978;28;20036;-59
2022/10/12 05:48:27;;;;;;;10.63;2.95;;;5.60;99.90;;;;;;4987376;28;20061;-59
2022/10/12 05:50:53;;;;;;;4.72;1.88;;;5.60;99.90;;;;;;4989098;28;20026;-60
2022/10/12 05:53:21;;;;;;;8.82;2.22;;;5.60;99.90;;;;;;4998416;28;20038;-58
2022/10/12 05:55:57;;;;;;;4.80;2.63;;;5.70;99.90;;;;;;4990540;28;20033;-58
2022/10/12 05:58:23;;;;;;;3.35;1.85;;;5.70;99.90;;;;;;4990168;28;20034;-58
2022/10/12 06:00:50;;;;;;;6.10;2.30;;;5.80;99.90;;;;;;4995548;28;20038;-58
2022/10/12 06:03:16;;;;;;;4.38;1.98;;;5.80;99.90;;;;;;4995898;28;20037;-60
2022/10/12 06:05:42;;;;;;;7.32;2.45;;;5.90;99.90;;;;;;4996463;28;20562;-57
2022/10/12 06:08:08;;;;;;;5.40;2.60;;;5.90;99.90;;;;;;4991179;28;20046;-60
2022/10/12 06:10:34;;;;;;;3.95;2.33;;;5.90;99.90;;;;;;4994040;28;20119;-58
2022/10/12 06:13:00;;;;;;;8.90;2.30;;;6.00;99.90;;;;;;4989850;28;20025;-59
2022/10/12 06:15:26;;;;;;;6.85;2.97;;;6.00;99.90;;;;;;4989432;28;20117;-59
2022/10/12 06:17:52;;;;;;;6.10;2.33;;;6.10;99.90;;;;;;4995870;28;20069;-60
2022/10/12 06:20:18;;;;;;;4.63;2.33;;;6.10;99.90;;;;;;4992828;28;20030;-59
2022/10/12 06:22:43;;;;;;;8.00;2.28;;;6.20;99.90;;;;;;4993802;28;20023;-59
2022/10/12 06:25:09;;;;;;;5.07;2.53;;;6.20;99.90;;;;;;4988030;28;20039;-59
2022/10/12 06:27:34;;;;;;;12.23;3.38;;;6.10;99.90;;;;;;4987769;28;20034;-60
2022/10/12 06:30:00;;;;;;;6.65;2.95;;;6.10;99.90;;;;;;4991771;28;20026;-59
2022/10/12 06:32:26;;;;;;;4.53;2.83;;;6.20;99.90;;;;;;4985884;28;20061;-61
2022/10/12 06:34:51;;;;;;;5.93;2.05;;;6.30;99.90;;;;;;4991674;28;20138;-59
2022/10/12 06:37:17;;;;;;;8.35;2.90;;;6.30;99.90;;;;;;4993651;28;20152;-58
2022/10/12 06:39:43;;;;;;;8.57;2.67;;;6.40;99.90;;;;;;4990323;28;20033;-59
2022/10/12 06:42:10;;;;;;;7.55;2.53;;;6.40;99.90;;;;;;4991163;28;20501;-58
2022/10/12 06:44:35;;;;;;;8.48;2.25;;;6.50;99.90;;;;;;4987228;28;20057;-60
2022/10/12 06:47:01;;;;;;;5.57;2.38;;;6.50;99.90;;;;;;4993308;28;20462;-58
2022/10/12 06:49:27;;;;;;;9.60;3.47;;;6.60;99.90;;;;;;5001075;28;20057;-59
2022/10/12 06:51:53;;;;;;;6.22;2.45;;;6.60;99.90;;;;;;4990277;28;20093;-58
2022/10/12 06:54:19;;;;;;;5.13;3.15;;;6.70;99.90;;;;;;5002973;28;20046;-59
2022/10/12 06:56:45;;;;;;;11.05;3.13;;;6.70;99.90;;;;;;4993552;28;20041;-59
2022/10/12 06:59:12;;;;;;;6.30;2.35;;;6.80;99.90;;;;;;4992313;28;20046;-59
2022/10/12 07:01:38;;;;;;;8.95;2.75;;;6.80;99.90;;;;;;4994291;28;20034;-58
2022/10/12 07:04:04;;;;;;;6.40;1.90;;;6.80;99.90;;;;;;4992632;28;20039;-59
2022/10/12 07:06:30;;;;;;;5.30;2.15;;;6.80;99.90;;;;;;4999808;28;20052;-60
2022/10/12 07:08:55;;;;;;;5.00;3.08;;;6.80;99.90;;;;;;4995935;28;20034;-60
2022/10/12 07:11:21;;;;;;;4.30;2.42;;;6.80;99.90;;;;;;5000462;28;20508;-59
2022/10/12 07:13:47;;;;;;;5.60;2.50;;;6.90;99.90;;;;;;4993233;28;20478;-60
2022/10/12 07:16:13;;;;;;;4.93;2.60;;;6.90;99.90;;;;;;4994840;28;20038;-58
2022/10/12 07:18:39;;;;;;;7.25;3.15;;;7.00;99.90;;;;;;4989221;28;20038;-58
2022/10/12 07:21:05;;;;;;;6.68;2.85;;;7.10;99.90;;;;;;4991312;28;20089;-59
2022/10/12 07:23:32;;;;;;;7.60;2.70;;;7.00;99.90;;;;;;4985090;28;20122;-58
2022/10/12 07:25:58;;;;;;;7.00;2.63;;;7.00;99.90;;;;;;4995461;28;20026;-59
2022/10/12 07:28:23;;;;;;;7.80;3.17;;;7.10;99.90;;;;;;4990401;28;20034;-58
2022/10/12 07:30:49;;;;;;;3.03;2.35;;;7.10;99.90;;;;;;4997311;28;20037;-58
2022/10/12 07:33:15;;;;;;;6.63;2.22;;;7.10;99.90;;;;;;4996858;28;20470;-59
2022/10/12 07:35:40;;;;;;;8.80;3.22;;;7.20;99.90;;;;;;5000828;28;20030;-58
2022/10/12 07:38:06;;;;;;;5.88;2.53;;;7.20;99.90;;;;;;4995787;28;20050;-59
2022/10/12 07:40:32;;;;;;;6.28;2.38;;;7.30;99.90;;;;;;4994662;28;20089;-59
2022/10/12 07:42:58;;;;;;;8.40;2.53;;;7.40;99.90;;;;;;5005457;28;20041;-61
2022/10/12 07:45:27;;;;;;;7.82;3.00;;;7.40;99.90;;;;;;5002170;28;20035;-59
2022/10/12 07:47:54;;;;;;;5.10;2.80;;;7.50;99.90;;;;;;4991048;28;20037;-59
2022/10/12 07:50:20;;;;;;;7.18;3.10;;;7.70;99.90;;;;;;4992494;28;20125;-59
2022/10/12 07:52:46;;;;;;;6.72;3.03;;;7.80;99.90;;;;;;4993373;28;20030;-59
2022/10/12 07:55:11;;;;;;;7.40;2.25;;;7.90;99.90;;;;;;4998553;28;20490;-58
2022/10/12 07:57:37;;;;;;;5.28;3.03;;;8.00;99.90;;;;;;4993244;28;20026;-59
2022/10/12 08:00:03;;;;;;;6.28;2.50;;;8.00;99.90;;;;;;4990390;28;20105;-59
2022/10/12 08:02:29;;;;;;;7.75;2.67;;;8.00;99.90;;;;;;5004287;28;20034;-59
2022/10/12 08:04:55;;;;;;;8.45;3.35;;;8.10;99.90;;;;;;4992447;28;20037;-58
2022/10/12 08:07:21;;;;;;;4.05;2.42;;;8.10;99.90;;;;;;4995516;28;20045;-59
2022/10/12 08:09:49;;;;;;;7.05;2.53;;;8.20;99.90;;;;;;4999702;28;20031;-59
2022/10/12 08:12:15;;;;;;;9.77;2.88;;;8.30;99.90;;;;;;4994355;28;20086;-59
2022/10/12 08:14:41;;;;;;;8.40;2.28;;;8.40;99.90;;;;;;4991594;28;20038;-59
2022/10/12 08:17:06;;;;;;;12.52;2.35;;;8.60;99.90;;;;;;5000319;28;20124;-60
2022/10/12 08:19:35;;;;;;;4.38;2.20;;;8.60;99.90;;;;;;5001772;28;20030;-59
2022/10/12 08:22:00;;;;;;;5.68;2.35;;;8.60;99.90;;;;;;4992745;28;20022;-59
2022/10/12 08:24:26;;;;;;;8.73;2.50;;;8.50;99.90;;;;;;4992413;28;20034;-59
2022/10/12 08:26:51;;;;;;;5.45;2.08;;;8.50;99.90;;;;;;4988721;28;20105;-60
2022/10/12 08:29:17;;;;;;;5.68;1.92;;;8.40;99.90;;;;;;4991369;28;20042;-59
2022/10/12 08:31:43;;;;;;;8.50;2.42;;;8.40;99.90;;;;;;4997068;28;20379;-59
2022/10/12 08:34:08;;;;;;;4.15;1.70;;;8.40;99.90;;;;;;4994173;28;20041;-59
2022/10/12 08:36:34;;;;;;;4.68;2.47;;;7.60;99.90;;;;;;4994940;28;20508;-58
2022/10/12 08:39:00;;;;;;;7.53;2.53;;;8.40;99.90;;;;;;4989800;28;20038;-60
2022/10/12 08:41:39;;;;;;;3.50;2.03;;;8.40;99.90;;;;;;4995566;28;20137;-60
2022/10/12 08:44:35;;;;;;;7.55;2.58;;;8.40;99.90;;;;;;4992094;28;20030;-60
2022/10/12 08:47:20;;;;;;;6.28;2.50;;;8.50;99.90;;;;;;4997582;28;20042;-58
2022/10/12 08:49:48;;;;;;;5.88;3.65;;;8.60;99.90;;;;;;4984897;28;20079;-60
2022/10/12 08:52:29;;;;;;;5.78;2.13;;;8.80;99.90;;;;;;4996216;28;20395;-58
2022/10/12 08:55:14;;;;;;;6.78;2.17;;;9.00;99.90;;;;;;4984078;28;20431;-59
2022/10/12 08:57:40;;;;;;;7.82;2.28;;;9.20;99.90;;;;;;4982108;28;20503;-59
2022/10/12 09:00:13;;;;;;;10.93;3.53;;;9.50;99.90;;;;;;4993791;28;20108;-58
2022/10/12 09:02:53;;;;;;;10.55;2.55;;;9.80;99.90;;;;;;4991962;28;20027;-58
2022/10/12 09:05:39;;;;;;;7.53;4.25;;;10.00;99.90;;;;;;4991273;28;20027;-59
2022/10/12 09:08:30;;;;;;;7.95;3.70;;;10.00;99.90;;;;;;4991554;28;20050;-58
2022/10/12 09:11:25;;;;;;;7.22;2.67;;;10.10;99.90;;;;;;4997605;28;20486;-60
2022/10/12 09:14:00;;;;;;;8.50;3.67;;;10.20;99.90;;;;;;4987648;28;20034;-60
2022/10/12 09:16:29;;;;;;;9.23;3.63;;;10.10;99.90;;;;;;4984812;28;20038;-59
2022/10/12 09:19:08;;;;;;;6.95;2.67;;;10.10;99.90;;;;;;4989281;28;20072;-59
2022/10/12 09:21:34;;;;;;;10.93;2.75;;;10.20;99.90;;;;;;4987331;28;20065;-59
2022/10/12 09:24:02;;;;;;;6.90;2.92;;;10.30;99.90;;;;;;4987430;28;20049;-59
2022/10/12 09:26:34;;;;;;;8.30;3.38;;;10.40;99.90;;;;;;4986837;28;20129;-59
2022/10/12 09:29:01;;;;;;;5.18;2.40;;;10.40;99.90;;;;;;4994437;28;20112;-59
2022/10/12 09:31:38;;;;;;;7.78;3.10;;;10.60;99.90;;;;;;4987511;28;20079;-58
2022/10/12 09:34:08;;;;;;;10.07;2.50;;;10.60;99.90;;;;;;4989124;28;20417;-59
2022/10/12 09:36:37;;;;;;;6.93;2.50;;;10.70;99.90;;;;;;4987955;28;20062;-59
2022/10/12 09:39:10;;;;;;;7.45;2.70;;;10.80;99.90;;;;;;4989968;28;20516;-58
2022/10/12 09:41:40;;;;;;;12.88;2.28;;;10.90;99.90;;;;;;4985829;28;20030;-60
2022/10/12 09:44:06;;;;;;;5.00;2.78;;;11.00;99.90;;;;;;4989535;28;20034;-59
2022/10/12 09:46:57;;;;;;;4.80;2.88;;;11.20;99.90;;;;;;4986836;28;20121;-59
2022/10/12 09:49:42;;;;;;;8.70;3.13;;;11.30;99.90;;;;;;4994737;28;20034;-58
2022/10/12 09:52:09;;;;;;;8.07;2.65;;;11.60;99.90;;;;;;4989167;28;20040;-58
2022/10/12 09:54:38;;;;;;;6.45;1.88;;;11.70;99.90;;;;;;4991464;28;20037;-58
2022/10/12 09:57:04;;;;;;;7.20;2.80;;;11.90;99.90;;;;;;4992799;28;20038;-59
2022/10/12 09:59:35;;;;;;;4.22;2.08;;;12.20;99.90;;;;;;4988564;28;20092;-59
2022/10/12 10:02:10;;;;;;;11.27;3.08;;;12.40;99.90;;;;;;4986611;28;20026;-58
2022/10/12 10:04:37;;;;;;;6.50;2.55;;;12.70;99.90;;;;;;4985339;28;20092;-59
2022/10/12 10:07:23;;;;;;;6.88;2.03;;;13.00;99.90;;;;;;4989194;28;20072;-59
2022/10/12 10:10:14;;;;;;;5.85;1.60;;;13.40;99.90;;;;;;4986546;28;20030;-60
2022/10/12 10:13:00;;;;;;;3.58;1.58;;;13.80;99.90;;;;;;4978363;28;20660;-58
2022/10/12 10:15:27;;;;;;;6.38;1.58;;;14.10;99.90;;;;;;4985406;28;20088;-58
2022/10/12 10:17:59;;;;;;;6.57;1.02;;;14.40;99.90;;;;;;4989366;28;20077;-60
2022/10/12 10:20:42;;;;;;;4.93;1.23;;;14.80;99.90;;;;;;4985849;28;20491;-62
2022/10/12 10:23:25;;;;;;;9.50;1.90;;;15.20;99.90;;;;;;4988731;28;20027;-58
2022/10/12 10:25:56;;;;;;;2.30;1.17;;;15.40;99.90;;;;;;4986420;28;20034;-57
2022/10/12 10:28:27;;;;;;;2.72;1.10;;;15.60;99.90;;;;;;4984114;28;20474;-59
2022/10/12 10:31:21;;;;;;;5.25;1.73;;;15.90;99.90;;;;;;4987181;28;20073;-58
2022/10/12 10:34:11;;;;;;;5.15;0.85;;;16.20;99.90;;;;;;4982165;28;20050;-58
2022/10/12 10:36:51;;;;;;;5.82;1.05;;;16.30;99.90;;;;;;4985545;28;20049;-58
2022/10/12 10:39:27;;;;;;;7.05;1.30;;;16.40;99.90;;;;;;4986586;28;20117;-59
2022/10/12 10:41:54;;;;;;;3.00;0.60;;;16.70;99.90;;;;;;4984887;28;20027;-59
2022/10/12 10:44:30;;;;;;;6.03;0.68;;;16.80;99.90;;;;;;4977124;28;20528;-59
2022/10/12 10:47:06;;;;;;;3.30;0.57;;;16.90;99.90;;;;;;4982565;28;20042;-61
2022/10/12 10:49:44;;;;;;;2.22;0.85;;;17.00;99.90;;;;;;4985528;28;20038;-58
2022/10/12 10:52:24;;;;;;;4.97;1.00;;;17.20;99.90;;;;;;4984467;28;20031;-60
2022/10/12 10:55:05;;;;;;;2.13;0.88;;;17.30;99.90;;;;;;4984660;28;20109;-58
2022/10/12 10:57:33;;;;;;;7.10;1.15;;;17.50;99.90;;;;;;4981911;28;20057;-59
2022/10/12 11:00:05;;;;;;;5.82;1.08;;;17.50;99.90;;;;;;4984670;28;20030;-59
2022/10/12 11:02:49;;;;;;;0.98;0.73;;;17.60;99.90;;;;;;4982898;28;20167;-60
2022/10/12 11:05:17;;;;;;;7.13;1.10;;;17.70;99.90;;;;;;4980861;28;20139;-60
2022/10/12 11:08:02;;;;;;;3.28;0.70;;;18.10;99.90;;;;;;4984754;28;20042;-60
2022/10/12 11:10:43;;;;;;;2.85;0.77;;;18.30;99.90;;;;;;4988282;28;20034;-59
2022/10/12 11:13:37;;;;;;;6.85;1.05;;;19.10;99.90;;;;;;4987381;28;20570;-59
2022/10/12 11:16:33;;;;;;;3.75;0.82;;;19.60;99.90;;;;;;4986937;28;20036;-59
2022/10/12 11:19:17;;;;;;;3.75;0.98;;;19.70;99.90;;;;;;4983043;28;20034;-58
2022/10/12 11:21:49;;;;;;;5.05;0.82;;;19.70;99.90;;;;;;4985467;28;20030;-59
2022/10/12 11:24:17;;;;;;;4.38;0.75;;;19.80;99.90;;;;;;4985466;28;20022;-59
2022/10/12 11:26:50;;;;;;;4.47;1.13;;;20.20;99.90;;;;;;4984403;28;20054;-59
2022/10/12 11:29:16;;;;;;;4.00;1.17;;;20.40;99.90;;;;;;4985384;28;20109;-58
2022/10/12 11:32:06;;;;;;;2.72;1.25;;;20.40;99.90;;;;;;4984701;28;20030;-62
2022/10/12 11:34:42;;;;;;;3.28;0.80;;;20.40;99.90;;;;;;4985979;28;20038;-60
2022/10/12 11:37:15;;;;;;;2.67;0.63;;;20.30;99.90;;;;;;4983148;28;20031;-58
2022/10/12 11:39:46;;;;;;;2.33;1.02;;;20.40;99.90;;;;;;4985338;28;20332;-59
2022/10/12 11:42:17;;;;;;;3.00;0.90;;;20.60;99.90;;;;;;4978259;28;20038;-58
2022/10/12 11:44:46;;;;;;;4.57;1.17;;;20.90;99.90;;;;;;4987205;28;20034;-59
2022/10/12 11:47:26;;;;;;;1.83;0.77;;;20.80;99.90;;;;;;4985771;28;20030;-58
2022/10/12 11:49:59;;;;;;;2.45;0.90;;;21.10;99.90;;;;;;4984774;28;20038;-57
2022/10/12 11:52:43;;;;;;;5.00;0.90;;;21.30;99.90;;;;;;4986837;28;20050;-59
2022/10/12 11:55:36;;;;;;;2.50;0.80;;;21.30;99.90;;;;;;4991830;28;20045;-59
2022/10/12 11:58:29;;;;;;;2.40;0.50;;;21.20;99.90;;;;;;4987699;28;20038;-59
2022/10/12 12:00:55;;;;;;;1.73;0.75;;;21.10;99.90;;;;;;4986695;28;20101;-57
2022/10/12 12:03:42;;;;;;;2.17;0.80;;;21.00;99.90;;;;;;4986394;28;20422;-59
2022/10/12 12:06:29;;;;;;;4.38;0.57;;;21.00;99.90;;;;;;4986441;28;20054;-59
2022/10/12 12:09:05;;;;;;;7.28;1.23;;;21.20;99.90;;;;;;4989154;28;20537;-58
2022/10/12 12:11:33;;;;;;;3.30;0.82;;;21.60;99.90;;;;;;4977022;28;20048;-59
2022/10/12 12:14:20;;;;;;;1.63;0.82;;;21.90;99.90;;;;;;4989563;28;20116;-59
2022/10/12 12:16:48;;;;;;;0.93;0.40;;;21.70;99.90;;;;;;4985368;28;20038;-60
2022/10/12 12:19:15;;;;;;;4.70;0.98;;;21.60;99.90;;;;;;4990350;28;20053;-59
2022/10/12 12:22:16;;;;;;;2.30;0.98;;;20.80;99.90;;;;;;4991104;28;20123;-58
2022/10/12 12:24:59;;;;;;;4.75;0.90;;;20.10;99.90;;;;;;4992110;28;20030;-59
2022/10/12 12:27:32;;;;;;;5.13;1.05;;;19.50;99.90;;;;;;4992208;28;20026;-59
2022/10/12 12:30:01;;;;;;;4.72;0.75;;;19.00;99.90;;;;;;4988737;28;20024;-59
2022/10/12 12:32:40;;;;;;;2.03;0.73;;;18.70;99.90;;;;;;4988726;28;20026;-58
2022/10/12 12:35:37;;;;;;;7.82;1.08;;;18.60;99.90;;;;;;4991191;28;20030;-59
2022/10/12 12:38:12;;;;;;;2.90;0.95;;;19.20;99.90;;;;;;4988308;28;20470;-59
2022/10/12 12:40:39;;;;;;;2.35;0.77;;;20.20;99.90;;;;;;4989705;28;20124;-58
2022/10/12 12:43:27;;;;;;;4.13;0.75;;;20.40;99.90;;;;;;4988682;28;20113;-58
2022/10/12 12:45:59;;;;;;;5.72;0.90;;;20.20;99.90;;;;;;4990266;28;20037;-58
2022/10/12 12:48:43;;;;;;;3.08;0.50;;;19.80;99.90;;;;;;4985133;28;20034;-58
2022/10/12 12:51:34;;;;;;;3.17;0.50;;;19.40;99.90;;;;;;4991369;28;20122;-59
2022/10/12 12:54:19;;;;;;;3.10;0.70;;;19.40;99.90;;;;;;4992559;28;20046;-58
2022/10/12 12:57:20;;;;;;;4.22;0.93;;;19.40;99.90;;;;;;4989920;28;20034;-59
2022/10/12 12:59:54;;;;;;;1.58;0.60;;;19.40;99.90;;;;;;4971645;28;20046;-58
2022/10/12 13:02:35;;;;;;;4.68;0.95;;;19.10;99.90;;;;;;4986574;28;20053;-59
2022/10/12 13:05:39;;;;;;;2.67;0.50;;;18.90;99.90;;;;;;4984009;28;20026;-61
2022/10/12 13:08:11;;;;;;;3.25;0.55;;;18.70;99.90;;;;;;4992005;28;20057;-58
2022/10/12 13:10:55;;;;;;;7.43;1.25;;;18.80;99.90;;;;;;4993918;28;20125;-59
2022/10/12 13:13:42;;;;;;;1.85;0.88;;;18.80;99.90;;;;;;4986518;28;20034;-59
2022/10/12 13:16:20;;;;;;;3.45;0.80;;;19.00;99.90;;;;;;4988769;28;20441;-58